Time;durP1;ratioP1;P1;durP2;ratioP2;P2;SDS_P1;SDS_P2;PMS_P1;PMS_P2;Temp;Humidity;BMP_temperature;BMP_pressure;BME280_temperature;BME280_humidity;BME280_pressure;Samples;Min_cycle;Max_cycle;Signal;HPM_P1;HPM_P2
2023/04/01 00:01:04;;;;;;;19.20;12.20;;;;;;;8.17;100.00;96965.33;131582;1287;24200;-75
2023/04/01 00:04:07;;;;;;;20.50;12.80;;;;;;;8.12;100.00;96964.82;131652;1287;25004;-77
2023/04/01 00:07:10;;;;;;;19.00;12.60;;;;;;;8.05;100.00;96969.98;131732;1287;24663;-76
2023/04/01 00:10:13;;;;;;;18.10;11.80;;;;;;;8.00;100.00;96966.52;131661;1287;22645;-76
2023/04/01 00:13:16;;;;;;;16.00;11.40;;;;;;;7.98;100.00;96964.43;131668;1287;22552;-77
2023/04/01 00:16:19;;;;;;;15.10;11.30;;;;;;;7.97;100.00;96968.61;131631;1287;24273;-77
2023/04/01 00:19:22;;;;;;;18.00;11.20;;;;;;;7.93;100.00;96964.41;131629;1287;24262;-77
2023/04/01 00:22:26;;;;;;;13.40;10.50;;;;;;;7.84;100.00;96961.46;131669;1287;26514;-75
2023/04/01 00:25:29;;;;;;;16.40;10.40;;;;;;;7.77;100.00;96954.22;131655;1264;22531;-75
2023/04/01 00:28:31;;;;;;;13.40;10.10;;;;;;;7.74;100.00;96950.30;131808;1287;22555;-78
2023/04/01 00:31:34;;;;;;;16.40;10.20;;;;;;;7.69;100.00;96951.84;131913;1287;22789;-77
2023/04/01 00:34:37;;;;;;;16.70;10.20;;;;;;;7.63;100.00;96951.25;131710;1287;24238;-78
2023/04/01 00:37:40;;;;;;;16.20;10.20;;;;;;;7.59;100.00;96951.77;131871;1287;23912;-75
2023/04/01 00:40:43;;;;;;;15.10;10.40;;;;;;;7.54;100.00;96951.94;131805;1287;23442;-76
2023/04/01 00:43:46;;;;;;;13.60;10.30;;;;;;;7.49;100.00;96951.70;131597;1287;22808;-76
2023/04/01 00:46:49;;;;;;;14.60;9.50;;;;;;;7.45;100.00;96945.91;131620;1287;25353;-76
2023/04/01 00:49:52;;;;;;;15.60;9.50;;;;;;;7.37;100.00;96944.59;131670;1287;22548;-76
2023/04/01 00:52:55;;;;;;;15.30;10.30;;;;;;;7.28;100.00;96942.52;131789;1287;22540;-76
2023/04/01 00:55:58;;;;;;;16.60;10.30;;;;;;;7.20;100.00;96934.99;131692;1287;25477;-78
2023/04/01 00:59:00;;;;;;;12.10;9.10;;;;;;;7.12;100.00;96935.48;131791;1287;25368;-76
2023/04/01 01:02:03;;;;;;;14.40;9.30;;;;;;;7.06;100.00;96929.47;131743;1287;23175;-77
2023/04/01 01:05:06;;;;;;;14.20;10.10;;;;;;;7.01;100.00;96932.75;131699;1287;22664;-76
2023/04/01 01:08:09;;;;;;;15.10;10.00;;;;;;;6.99;100.00;96932.27;131834;1287;22913;-76
2023/04/01 01:11:12;;;;;;;13.70;10.00;;;;;;;6.95;100.00;96928.86;131775;1287;22585;-77
2023/04/01 01:14:15;;;;;;;11.70;9.60;;;;;;;6.90;100.00;96927.98;131651;1287;22613;-76
2023/04/01 01:17:18;;;;;;;15.90;11.10;;;;;;;6.81;100.00;96924.93;131659;1287;22544;-76
2023/04/01 01:20:21;;;;;;;15.60;11.10;;;;;;;6.71;100.00;96923.73;131653;1287;22564;-76
2023/04/01 01:23:24;;;;;;;15.30;9.70;;;;;;;6.67;100.00;96925.74;131673;1287;22529;-76
2023/04/01 01:26:28;;;;;;;15.50;10.60;;;;;;;6.62;100.00;96925.79;131638;1287;22811;-76
2023/04/01 01:29:31;;;;;;;15.50;10.50;;;;;;;6.59;100.00;96922.42;131673;1287;24214;-77
2023/04/01 01:32:33;;;;;;;15.10;10.80;;;;;;;6.55;100.00;96920.41;131649;1287;22543;-77
2023/04/01 01:35:36;;;;;;;19.80;12.50;;;;;;;6.51;100.00;96918.70;131674;1287;25498;-77
2023/04/01 01:38:39;;;;;;;19.40;11.30;;;;;;;6.48;100.00;96924.35;131595;1263;23188;-76
2023/04/01 01:41:42;;;;;;;13.20;10.60;;;;;;;6.42;100.00;96924.55;131627;1287;23923;-76
2023/04/01 01:44:45;;;;;;;16.20;11.70;;;;;;;6.37;100.00;96928.85;131979;1287;22501;-76
2023/04/01 01:47:48;;;;;;;17.40;10.90;;;;;;;6.34;100.00;96928.69;131878;1287;23142;-78
2023/04/01 01:50:51;;;;;;;15.50;11.10;;;;;;;6.33;100.00;96925.45;131681;1287;25284;-76
2023/04/01 01:53:54;;;;;;;18.90;11.30;;;;;;;6.31;100.00;96925.13;131870;1287;22809;-75
2023/04/01 01:56:57;;;;;;;15.70;12.10;;;;;;;6.29;100.00;96926.90;131817;1287;22537;-75
2023/04/01 02:00:00;;;;;;;20.20;13.20;;;;;;;6.30;100.00;96934.13;131733;1287;22686;-76
2023/04/01 02:03:03;;;;;;;17.00;12.80;;;;;;;6.29;100.00;96933.86;131713;1287;25704;-75
2023/04/01 02:06:05;;;;;;;18.50;12.30;;;;;;;6.32;100.00;96936.45;131697;1264;25587;-76
2023/04/01 02:09:10;;;;;;;17.30;10.80;;;;;;;6.36;100.00;96933.20;131872;1283;22499;-76
2023/04/01 02:12:13;;;;;;;20.60;11.80;;;;;;;6.40;100.00;96927.22;132143;1287;24065;-76
2023/04/01 02:15:15;;;;;;;22.40;13.90;;;;;;;6.44;100.00;96926.77;132447;1287;26624;-77
2023/04/01 02:18:18;;;;;;;18.80;13.00;;;;;;;6.48;100.00;96928.64;131789;1287;22552;-77
2023/04/01 02:21:21;;;;;;;21.20;13.80;;;;;;;6.51;100.00;96926.73;131894;1287;22536;-76
2023/04/01 02:24:24;;;;;;;19.10;12.40;;;;;;;6.55;100.00;96934.65;131797;1287;22551;-77
2023/04/01 02:27:27;;;;;;;19.80;12.30;;;;;;;6.60;100.00;96938.92;131864;1287;25489;-77
2023/04/01 02:30:30;;;;;;;17.30;12.80;;;;;;;6.67;100.00;96945.44;131759;1287;23211;-77
2023/04/01 02:33:33;;;;;;;18.60;13.20;;;;;;;6.75;100.00;96943.01;131406;1287;322754;-76
2023/04/01 02:36:36;;;;;;;18.00;13.00;;;;;;;6.80;100.00;96946.02;131725;1287;22611;-76
2023/04/01 02:39:38;;;;;;;19.00;13.70;;;;;;;6.85;100.00;96943.14;131674;1287;24213;-77
2023/04/01 02:43:01;;;;;;;19.10;14.50;;;;;;;6.91;100.00;96944.83;131683;1287;23346;-76
2023/04/01 02:46:04;;;;;;;18.40;14.60;;;;;;;6.96;100.00;96943.88;131665;1287;25353;-77
2023/04/01 02:49:07;;;;;;;18.50;13.90;;;;;;;7.00;100.00;96950.77;131641;1285;22536;-78
2023/04/01 02:52:10;;;;;;;16.30;12.80;;;;;;;7.01;100.00;96952.92;131690;1287;25321;-79
2023/04/01 02:55:13;;;;;;;18.90;13.00;;;;;;;7.02;100.00;96950.48;131756;1287;22539;-76
2023/04/01 02:58:15;;;;;;;16.90;12.30;;;;;;;7.04;100.00;96951.73;131995;1287;25313;-76
2023/04/01 03:01:18;;;;;;;19.20;12.00;;;;;;;7.08;100.00;96953.28;132031;1287;22533;-76
2023/04/01 03:04:21;;;;;;;22.80;13.20;;;;;;;7.13;100.00;96958.37;131771;1287;25236;-75
2023/04/01 03:07:24;;;;;;;19.20;12.60;;;;;;;7.17;100.00;96961.95;131907;1287;24056;-76
2023/04/01 03:10:27;;;;;;;17.60;12.00;;;;;;;7.17;100.00;96960.23;131919;1287;23927;-75
2023/04/01 03:13:30;;;;;;;17.40;12.60;;;;;;;7.18;100.00;96966.79;131802;1287;23939;-78
2023/04/01 03:16:33;;;;;;;18.80;12.60;;;;;;;7.20;100.00;96969.63;131863;1287;24390;-77
2023/04/01 03:19:35;;;;;;;15.90;11.30;;;;;;;7.23;100.00;96972.60;131692;1287;25416;-77
2023/04/01 03:22:38;;;;;;;18.30;13.10;;;;;;;7.27;100.00;96972.55;131627;1287;24271;-76
2023/04/01 03:25:41;;;;;;;18.90;11.70;;;;;;;7.33;100.00;96973.60;131646;1287;22668;-77
2023/04/01 03:28:44;;;;;;;16.80;11.60;;;;;;;7.38;100.00;96971.87;131684;1287;24367;-77
2023/04/01 03:31:47;;;;;;;13.60;10.70;;;;;;;7.41;100.00;96970.12;131646;1287;22567;-76
2023/04/01 03:34:50;;;;;;;14.00;10.30;;;;;;;7.43;100.00;96974.64;131634;1287;25367;-77
2023/04/01 03:37:53;;;;;;;11.80;10.00;;;;;;;7.45;100.00;96971.79;131648;1287;24381;-77
2023/04/01 03:40:55;;;;;;;12.60;9.20;;;;;;;7.45;100.00;96973.47;131680;1287;22649;-76
2023/04/01 03:43:58;;;;;;;10.30;8.60;;;;;;;7.46;100.00;96976.42;131663;1287;22660;-77
2023/04/01 03:47:01;;;;;;;11.70;8.80;;;;;;;7.50;100.00;96976.83;131694;1287;23188;-77
2023/04/01 03:50:04;;;;;;;11.00;8.80;;;;;;;7.51;100.00;96975.99;131674;1287;22663;-75
2023/04/01 03:53:07;;;;;;;10.70;9.10;;;;;;;7.51;100.00;96977.20;131643;1280;22602;-76
2023/04/01 03:56:10;;;;;;;12.20;9.00;;;;;;;7.53;100.00;96978.39;131824;1287;25341;-75
2023/04/01 03:59:13;;;;;;;12.90;8.40;;;;;;;7.54;100.00;96979.59;131645;1287;22579;-76
2023/04/01 04:02:16;;;;;;;11.60;7.40;;;;;;;7.53;100.00;96978.59;131702;1287;25337;-76
2023/04/01 04:05:19;;;;;;;10.70;8.00;;;;;;;7.51;100.00;96982.25;131692;1287;25481;-76
2023/04/01 04:08:22;;;;;;;8.70;7.50;;;;;;;7.50;100.00;96983.20;131657;1287;25471;-76
2023/04/01 04:11:25;;;;;;;8.90;7.10;;;;;;;7.47;100.00;96982.27;131650;1264;25559;-75
2023/04/01 04:14:28;;;;;;;10.10;8.10;;;;;;;7.42;100.00;96984.64;131662;1274;25343;-77
2023/04/01 04:17:31;;;;;;;7.90;7.10;;;;;;;7.36;100.00;96990.05;131613;1287;22865;-76
2023/04/01 04:20:34;;;;;;;11.90;7.80;;;;;;;7.30;100.00;96989.60;131678;1287;22643;-77
2023/04/01 04:23:37;;;;;;;10.60;7.30;;;;;;;7.27;100.00;96990.02;131694;1287;22787;-78
2023/04/01 04:26:40;;;;;;;8.30;7.50;;;;;;;7.25;100.00;96988.10;131872;1287;22545;-78
2023/04/01 04:29:42;;;;;;;11.50;8.10;;;;;;;7.27;100.00;96991.10;131924;1287;22538;-78
2023/04/01 04:32:45;;;;;;;8.60;6.70;;;;;;;7.30;100.00;96989.09;131961;1287;23024;-77
2023/04/01 04:35:48;;;;;;;9.30;7.90;;;;;;;7.33;100.00;96991.08;131915;1287;24209;-77
2023/04/01 04:38:51;;;;;;;15.40;8.70;;;;;;;7.36;100.00;96989.14;131920;1287;25415;-77
2023/04/01 04:41:53;;;;;;;10.00;8.60;;;;;;;7.38;100.00;96990.30;132061;1287;26026;-76
2023/04/01 04:44:56;;;;;;;9.50;7.60;;;;;;;7.40;100.00;96991.58;132567;1287;22489;-76
2023/04/01 04:47:59;;;;;;;10.80;8.00;;;;;;;7.46;100.00;96989.61;132471;1287;23076;-76
2023/04/01 04:51:02;;;;;;;9.70;7.70;;;;;;;7.56;100.00;96993.41;132188;1287;24241;-76
2023/04/01 04:54:04;;;;;;;11.20;7.80;;;;;;;7.65;100.00;96998.05;132116;1287;25419;-77
2023/04/01 04:57:07;;;;;;;11.60;8.90;;;;;;;7.73;100.00;96998.72;132240;1287;22568;-77
2023/04/01 05:00:11;;;;;;;10.70;8.00;;;;;;;7.78;100.00;96999.64;132569;1287;25412;-75
2023/04/01 05:03:14;;;;;;;9.90;8.50;;;;;;;7.82;100.00;97000.99;132083;1287;22523;-78
2023/04/01 05:06:17;;;;;;;10.70;7.90;;;;;;;7.88;100.00;97001.39;131879;1287;24231;-76
2023/04/01 05:09:20;;;;;;;8.80;7.90;;;;;;;7.94;100.00;97000.25;131749;1287;22744;-76
2023/04/01 05:12:22;;;;;;;9.50;7.50;;;;;;;7.96;100.00;96997.05;131802;1287;24242;-76
2023/04/01 05:15:25;;;;;;;10.20;8.20;;;;;;;7.98;100.00;96999.40;131701;1287;24405;-76
2023/04/01 05:18:28;;;;;;;10.50;9.40;;;;;;;8.04;100.00;97001.26;131720;1264;23134;-76
2023/04/01 05:21:31;;;;;;;14.70;8.70;;;;;;;8.08;100.00;97002.83;131698;1280;24288;-76
2023/04/01 05:24:34;;;;;;;7.80;6.90;;;;;;;8.13;100.00;97003.48;131668;1287;22696;-77
2023/04/01 05:27:37;;;;;;;10.10;7.20;;;;;;;8.21;100.00;97006.47;131662;1287;24201;-76
2023/04/01 05:30:39;;;;;;;11.70;8.10;;;;;;;8.28;100.00;97000.71;131648;1287;25345;-75
2023/04/01 05:33:42;;;;;;;12.00;8.30;;;;;;;8.41;100.00;97001.86;131654;1283;22543;-76
2023/04/01 05:36:45;;;;;;;14.50;9.30;;;;;;;8.59;100.00;97006.91;131665;1287;23460;-77
2023/04/01 05:39:48;;;;;;;15.30;9.40;;;;;;;8.85;100.00;97006.62;131728;1287;22770;-77
2023/04/01 05:42:51;;;;;;;11.00;8.80;;;;;;;9.14;100.00;96998.65;131757;1287;22551;-75
2023/04/01 05:45:54;;;;;;;12.70;8.70;;;;;;;9.28;100.00;96996.37;131782;1287;23906;-77
2023/04/01 05:48:56;;;;;;;11.90;8.80;;;;;;;9.42;100.00;97000.11;131836;1287;22547;-76
2023/04/01 05:51:59;;;;;;;15.00;11.10;;;;;;;9.56;100.00;96993.29;132246;1287;22692;-77
2023/04/01 05:55:02;;;;;;;20.10;11.50;;;;;;;9.66;100.00;96997.02;132932;1287;23896;-77
2023/04/01 05:58:05;;;;;;;11.10;9.10;;;;;;;9.76;100.00;96997.13;132095;1265;22805;-77
2023/04/01 06:01:08;;;;;;;11.20;8.90;;;;;;;9.85;100.00;97000.71;131914;1287;22558;-77
2023/04/01 06:04:11;;;;;;;13.40;8.80;;;;;;;9.98;100.00;97002.10;131952;1287;25454;-76
2023/04/01 06:07:14;;;;;;;13.60;9.00;;;;;;;10.07;100.00;97001.05;131745;1287;24222;-78
2023/04/01 06:10:17;;;;;;;16.20;9.90;;;;;;;10.07;100.00;97002.73;131756;1287;22549;-76
2023/04/01 06:13:20;;;;;;;11.70;8.00;;;;;;;10.12;100.00;97003.36;131757;1287;22546;-76
2023/04/01 06:16:23;;;;;;;12.40;8.80;;;;;;;10.10;100.00;97004.43;131721;1287;25271;-77
2023/04/01 06:19:26;;;;;;;13.10;8.40;;;;;;;10.15;100.00;97003.82;131873;1287;22866;-78
2023/04/01 06:22:28;;;;;;;11.00;8.10;;;;;;;10.25;100.00;97001.59;131806;1287;25411;-77
2023/04/01 06:25:31;;;;;;;14.50;9.10;;;;;;;10.46;100.00;97000.39;131642;1287;22545;-79
2023/04/01 06:28:34;;;;;;;15.50;8.30;;;;;;;10.74;100.00;97000.00;131742;1287;22541;-76
2023/04/01 06:31:37;;;;;;;12.10;7.90;;;;;;;10.90;100.00;97002.08;131755;1287;24214;-77
2023/04/01 06:34:40;;;;;;;9.60;7.50;;;;;;;10.94;100.00;97003.27;131694;1287;22652;-78
2023/04/01 06:37:43;;;;;;;9.20;6.20;;;;;;;10.99;100.00;97004.81;131718;1287;25227;-76
2023/04/01 06:40:46;;;;;;;10.70;7.80;;;;;;;11.05;100.00;97000.89;131808;1287;24167;-77
2023/04/01 06:43:49;;;;;;;8.60;6.80;;;;;;;11.10;100.00;97006.21;131756;1287;22626;-76
2023/04/01 06:46:52;;;;;;;6.90;6.10;;;;;;;11.13;100.00;97000.57;131824;1277;25522;-76
2023/04/01 06:49:55;;;;;;;7.50;6.40;;;;;;;11.22;100.00;96999.98;131714;1287;24358;-79
2023/04/01 06:52:58;;;;;;;7.10;6.40;;;;;;;11.35;100.00;97000.85;131700;1287;22539;-77
2023/04/01 06:56:00;;;;;;;7.80;5.50;;;;;;;11.49;100.00;97001.92;131723;1287;24217;-78
2023/04/01 06:59:03;;;;;;;7.80;5.70;;;;;;;11.62;100.00;97005.98;131758;1287;23051;-78
2023/04/01 07:02:07;;;;;;;9.80;5.90;;;;;;;11.75;100.00;97008.02;131722;1287;25286;-77
2023/04/01 07:05:10;;;;;;;8.00;5.80;;;;;;;11.93;100.00;97013.42;131730;1287;22530;-76
2023/04/01 07:08:13;;;;;;;6.30;5.00;;;;;;;12.09;100.00;97012.00;131727;1287;22534;-77
2023/04/01 07:11:16;;;;;;;7.20;5.30;;;;;;;12.21;100.00;97012.02;131652;1287;26744;-77
2023/04/01 07:14:18;;;;;;;8.50;5.30;;;;;;;12.29;100.00;97012.04;131699;1287;22645;-77
2023/04/01 07:17:21;;;;;;;5.70;5.10;;;;;;;12.30;100.00;97010.52;131759;1287;23132;-79
2023/04/01 07:20:26;;;;;;;7.20;5.90;;;;;;;12.38;100.00;97012.38;131681;1287;22708;-77
2023/04/01 07:23:28;;;;;;;6.80;5.10;;;;;;;12.47;100.00;97016.13;131780;1287;25413;-77
2023/04/01 07:26:31;;;;;;;7.30;5.40;;;;;;;12.55;100.00;97017.19;131742;1287;25346;-74
2023/04/01 07:29:35;;;;;;;8.50;6.20;;;;;;;12.62;100.00;97019.01;131731;1287;22534;-76
2023/04/01 07:32:37;;;;;;;7.10;4.80;;;;;;;12.79;100.00;97016.75;131720;1287;22546;-76
2023/04/01 07:35:42;;;;;;;4.80;4.40;;;;;;;12.97;100.00;97019.96;131821;1287;23898;-77
2023/04/01 07:38:45;;;;;;;7.80;4.90;;;;;;;13.27;100.00;97020.88;131793;1283;24774;-78
2023/04/01 07:41:48;;;;;;;5.10;3.80;;;;;;;13.51;100.00;97015.91;131873;1287;25498;-77
2023/04/01 07:44:51;;;;;;;5.50;4.90;;;;;;;13.56;100.00;97016.84;131784;1287;24224;-76
2023/04/01 07:47:56;;;;;;;6.70;4.50;;;;;;;13.50;100.00;97015.95;131827;1287;22544;-77
2023/04/01 07:50:59;;;;;;;6.90;4.90;;;;;;;13.41;100.00;97017.64;131856;1284;22556;-78
2023/04/01 07:54:02;;;;;;;6.80;4.90;;;;;;;13.42;100.00;97022.59;131794;1287;25460;-77
2023/04/01 07:57:05;;;;;;;6.30;5.30;;;;;;;13.45;100.00;97021.91;131988;1287;22755;-77
2023/04/01 08:00:08;;;;;;;5.50;4.70;;;;;;;13.33;100.00;97027.09;131952;1287;22594;-76
2023/04/01 08:03:11;;;;;;;5.20;4.50;;;;;;;13.21;100.00;97031.14;131946;1287;22543;-78
2023/04/01 08:06:14;;;;;;;5.60;4.00;;;;;;;13.03;100.00;97035.48;131921;1287;25861;-78
2023/04/01 08:09:17;;;;;;;5.10;3.70;;;;;;;12.77;100.00;97040.50;131841;1287;25411;-76
2023/04/01 08:12:20;;;;;;;4.00;3.60;;;;;;;12.59;100.00;97045.45;131920;1287;25858;-77
2023/04/01 08:15:23;;;;;;;4.00;2.70;;;;;;;12.42;100.00;97042.13;131949;1287;22532;-77
2023/04/01 08:18:25;;;;;;;4.40;3.90;;;;;;;12.20;100.00;97048.38;131935;1287;24052;-76
2023/04/01 08:21:28;;;;;;;3.60;3.30;;;;;;;12.17;100.00;97050.84;131898;1287;25231;-76
2023/04/01 08:24:31;;;;;;;3.40;2.70;;;;;;;12.26;100.00;97046.52;131864;1287;23339;-76
2023/04/01 08:27:34;;;;;;;4.40;4.00;;;;;;;12.38;100.00;97048.12;131754;1287;25342;-76
2023/04/01 08:30:37;;;;;;;3.70;3.40;;;;;;;12.44;100.00;97049.65;131853;1287;25227;-77
2023/04/01 08:33:40;;;;;;;5.60;3.70;;;;;;;12.37;100.00;97050.64;131835;1287;22585;-78
2023/04/01 08:36:42;;;;;;;4.60;4.30;;;;;;;12.28;100.00;97050.38;131820;1287;22485;-77
2023/04/01 08:39:45;;;;;;;4.40;4.00;;;;;;;12.24;100.00;97050.45;131814;1287;23124;-77
2023/04/01 08:42:48;;;;;;;5.00;4.50;;;;;;;12.24;100.00;97049.94;131807;1287;24090;-77
2023/04/01 08:45:52;;;;;;;4.20;3.90;;;;;;;12.23;100.00;97050.59;131797;1287;22601;-77
2023/04/01 08:48:55;;;;;;;5.10;4.60;;;;;;;12.15;100.00;97048.21;131824;1287;22574;-77
2023/04/01 08:51:58;;;;;;;7.90;6.80;;;;;;;12.13;100.00;97044.66;131811;1281;22653;-77
2023/04/01 08:55:01;;;;;;;8.00;7.10;;;;;;;12.19;100.00;97045.80;131762;1287;25486;-76
2023/04/01 08:58:04;;;;;;;5.10;4.60;;;;;;;12.31;100.00;97049.19;131729;1277;24361;-77
2023/04/01 09:01:07;;;;;;;4.50;4.10;;;;;;;12.49;100.00;97047.94;131759;1287;24226;-77
2023/04/01 09:04:10;;;;;;;4.40;4.10;;;;;;;12.63;100.00;97047.63;131816;1287;22677;-78
2023/04/01 09:07:12;;;;;;;6.50;6.00;;;;;;;12.75;100.00;97053.28;131810;1287;25234;-77
2023/04/01 09:10:15;;;;;;;6.20;5.70;;;;;;;12.91;100.00;97045.08;131869;1287;25356;-76
2023/04/01 09:13:18;;;;;;;5.40;4.90;;;;;;;13.02;100.00;97047.02;131889;1287;25344;-79
2023/04/01 09:16:21;;;;;;;3.40;3.10;;;;;;;13.15;100.00;97042.98;131902;1287;25423;-79
2023/04/01 09:19:24;;;;;;;4.00;3.50;;;;;;;13.26;100.00;97042.27;131862;1287;22699;-77
2023/04/01 09:22:27;;;;;;;3.90;3.60;;;;;;;13.39;100.00;97043.80;131940;1287;22707;-77
2023/04/01 09:25:30;;;;;;;3.80;3.50;;;;;;;13.55;100.00;97044.64;131973;1287;25632;-78
2023/04/01 09:28:32;;;;;;;2.90;2.70;;;;;;;13.77;100.00;97046.02;131944;1287;25598;-77
2023/04/01 09:31:35;;;;;;;2.80;2.70;;;;;;;13.92;100.00;97050.37;131994;1287;24195;-77
2023/04/01 09:34:38;;;;;;;2.90;2.70;;;;;;;14.04;100.00;97048.05;131914;1287;23591;-79
2023/04/01 09:37:41;;;;;;;2.60;2.40;;;;;;;14.11;100.00;97044.69;132582;1287;22647;-78
2023/04/01 09:40:44;;;;;;;3.60;3.30;;;;;;;14.15;100.00;97049.63;132527;1287;22681;-76
2023/04/01 09:43:47;;;;;;;3.20;2.80;;;;;;;14.10;100.00;97051.11;132116;1287;23015;-78
2023/04/01 09:46:49;;;;;;;2.20;2.10;;;;;;;14.06;100.00;97052.55;132222;1287;24715;-78
2023/04/01 09:49:52;;;;;;;2.30;2.10;;;;;;;14.07;100.00;97050.04;132206;1287;24207;-79
2023/04/01 09:52:55;;;;;;;2.00;1.90;;;;;;;14.16;100.00;97051.23;132124;1287;24292;-77
2023/04/01 09:55:58;;;;;;;3.40;3.10;;;;;;;14.20;100.00;97054.04;132070;1287;22555;-79
2023/04/01 09:59:01;;;;;;;2.40;2.20;;;;;;;14.17;100.00;97057.89;132068;1283;22539;-77
2023/04/01 10:02:04;;;;;;;2.10;2.00;;;;;;;14.17;100.00;97055.28;131876;1287;22533;-77
2023/04/01 10:05:07;;;;;;;2.70;2.40;;;;;;;14.18;100.00;97057.91;131949;1287;25396;-76
2023/04/01 10:08:10;;;;;;;2.10;1.90;;;;;;;14.20;100.00;97056.09;131879;1283;25331;-76
2023/04/01 10:11:13;;;;;;;2.50;2.30;;;;;;;14.32;100.00;97055.39;131972;1287;25403;-77
2023/04/01 10:14:16;;;;;;;2.30;2.20;;;;;;;14.44;100.00;97055.11;132065;1287;25904;-78
2023/04/01 10:17:19;;;;;;;1.90;1.80;;;;;;;14.46;100.00;97057.79;131977;1287;23903;-76
2023/04/01 10:20:22;;;;;;;2.30;2.10;;;;;;;14.46;100.00;97053.94;132029;1287;22773;-79
2023/04/01 10:23:25;;;;;;;2.60;2.30;;;;;;;14.43;100.00;97054.39;132056;1287;22663;-77
2023/04/01 10:26:28;;;;;;;2.30;2.20;;;;;;;14.56;100.00;97054.73;132037;1287;24176;-78
2023/04/01 10:29:30;;;;;;;1.80;1.70;;;;;;;14.61;100.00;97052.37;132140;1287;22540;-77
2023/04/01 10:32:33;;;;;;;2.30;1.80;;;;;;;14.55;100.00;97053.73;132193;1287;22633;-78
2023/04/01 10:35:36;;;;;;;2.40;2.20;;;;;;;14.58;100.00;97053.54;132170;1287;22551;-78
2023/04/01 10:38:40;;;;;;;3.80;2.40;;;;;;;14.60;100.00;97051.20;132004;1287;25262;-78
2023/04/01 10:41:43;;;;;;;3.30;3.00;;;;;;;14.58;100.00;97050.96;131961;1287;24195;-78
2023/04/01 10:44:46;;;;;;;1.80;1.70;;;;;;;14.42;100.00;97049.38;131974;1284;25418;-78
2023/04/01 10:47:48;;;;;;;1.60;1.50;;;;;;;14.20;100.00;97050.98;132046;1287;25226;-78
2023/04/01 10:50:51;;;;;;;2.80;1.90;;;;;;;14.05;100.00;97049.45;131932;1287;25280;-78
2023/04/01 10:53:54;;;;;;;3.30;3.10;;;;;;;14.02;100.00;97051.20;131887;1284;22596;-77
2023/04/01 10:56:57;;;;;;;2.10;2.00;;;;;;;13.94;100.00;97058.18;132202;1287;22536;-79
2023/04/01 11:00:00;;;;;;;2.20;2.10;;;;;;;13.84;100.00;97059.14;132133;1287;24175;-77
2023/04/01 11:03:03;;;;;;;1.90;1.80;;;;;;;13.74;100.00;97058.03;132154;1287;24227;-77
2023/04/01 11:06:06;;;;;;;2.00;1.90;;;;;;;13.56;100.00;97062.55;132148;1287;23807;-78
2023/04/01 11:09:09;;;;;;;3.60;2.00;;;;;;;13.31;100.00;97061.17;132207;1283;22531;-77
2023/04/01 11:12:12;;;;;;;5.30;2.00;;;;;;;13.12;100.00;97059.34;132260;1287;22538;-78
2023/04/01 11:15:14;;;;;;;2.20;2.10;;;;;;;12.98;100.00;97057.86;132183;1287;24101;-78
2023/04/01 11:18:21;;;;;;;3.70;2.20;;;;;;;12.86;100.00;97058.59;132336;1287;24297;-77
2023/04/01 11:21:27;;;;;;;2.80;2.70;;;;;;;12.75;100.00;97058.54;132331;1287;25433;-77
2023/04/01 11:24:30;;;;;;;3.10;2.80;;;;;;;12.66;100.00;97057.30;132328;1287;22481;-79
2023/04/01 11:27:37;;;;;;;2.30;2.10;;;;;;;12.64;100.00;97053.35;132280;1287;22502;-77
2023/04/01 11:30:40;;;;;;;2.10;1.70;;;;;;;12.69;100.00;97051.94;132312;1287;25414;-77
2023/04/01 11:33:43;;;;;;;2.40;1.90;;;;;;;12.79;100.00;97053.77;131909;1287;22572;-77
2023/04/01 11:36:46;;;;;;;2.20;2.00;;;;;;;12.94;100.00;97052.69;132155;1287;22548;-77
2023/04/01 11:39:49;;;;;;;2.40;2.20;;;;;;;13.17;100.00;97052.34;132269;1287;22558;-80
2023/04/01 11:42:52;;;;;;;2.40;2.30;;;;;;;13.46;100.00;97047.23;132235;1266;24225;-78
2023/04/01 11:45:55;;;;;;;1.90;1.80;;;;;;;13.64;100.00;97046.14;132422;1287;22543;-77
2023/04/01 11:48:58;;;;;;;2.70;1.60;;;;;;;13.86;100.00;97044.81;132352;1287;24058;-77
2023/04/01 11:52:01;;;;;;;1.10;1.10;;;;;;;14.06;100.00;97045.66;132310;1287;22533;-77
2023/04/01 11:55:04;;;;;;;1.50;1.30;;;;;;;14.20;100.00;97042.29;132196;1287;22589;-78
2023/04/01 11:58:07;;;;;;;1.20;1.20;;;;;;;14.29;100.00;97046.67;132171;1287;22537;-79
2023/04/01 12:01:11;;;;;;;1.40;1.40;;;;;;;14.45;100.00;97046.23;132136;1287;24181;-77
2023/04/01 12:04:14;;;;;;;1.60;1.30;;;;;;;14.59;100.00;97047.60;132179;1287;25403;-78
2023/04/01 12:07:16;;;;;;;1.50;1.40;;;;;;;14.68;100.00;97044.98;132104;1287;24240;-78
2023/04/01 12:10:19;;;;;;;1.50;1.40;;;;;;;14.81;100.00;97048.65;132168;1287;23194;-78
2023/04/01 12:13:22;;;;;;;1.60;1.50;;;;;;;15.06;100.00;97039.54;132106;1287;24283;-76
2023/04/01 12:16:25;;;;;;;1.90;1.80;;;;;;;15.37;100.00;97037.77;132169;1287;22544;-79
2023/04/01 12:19:28;;;;;;;2.70;1.90;;;;;;;15.70;100.00;97040.55;132037;1287;25421;-78
2023/04/01 12:22:31;;;;;;;2.10;1.90;;;;;;;15.93;100.00;97039.09;132070;1287;22654;-79
2023/04/01 12:25:34;;;;;;;2.20;2.00;;;;;;;15.96;100.00;97042.75;132026;1287;24324;-78
2023/04/01 12:28:37;;;;;;;2.50;1.80;;;;;;;15.87;100.00;97045.69;132008;1287;24276;-76
2023/04/01 12:31:40;;;;;;;3.90;2.10;;;;;;;15.77;100.00;97040.81;131996;1287;22543;-79
2023/04/01 12:34:42;;;;;;;4.40;2.60;;;;;;;15.62;100.00;97044.70;132031;1287;22582;-77
2023/04/01 12:37:45;;;;;;;1.70;1.60;;;;;;;15.55;100.00;97041.09;132138;1287;25447;-79
2023/04/01 12:40:48;;;;;;;1.50;1.40;;;;;;;15.53;100.00;97048.02;131966;1287;22548;-79
2023/04/01 12:43:51;;;;;;;2.10;1.70;;;;;;;15.48;100.00;97053.90;131952;1287;22556;-78
2023/04/01 12:46:54;;;;;;;2.30;2.10;;;;;;;15.43;100.00;97054.80;131951;1287;22520;-77
2023/04/01 12:49:57;;;;;;;5.10;4.40;;;;;;;15.36;100.00;97053.59;131989;1287;25483;-77
2023/04/01 12:53:02;;;;;;;4.10;3.70;;;;;;;15.25;100.00;97056.71;131995;1287;22540;-78
2023/04/01 12:56:05;;;;;;;3.00;2.20;;;;;;;15.11;100.00;97058.63;131958;1281;24212;-77
2023/04/01 12:59:08;;;;;;;3.00;1.80;;;;;;;14.90;100.00;97061.82;132101;1287;22493;-77
2023/04/01 13:02:11;;;;;;;2.30;2.10;;;;;;;14.71;100.00;97067.73;132347;1287;23578;-77
2023/04/01 13:05:14;;;;;;;2.90;2.70;;;;;;;14.49;100.00;97068.49;132164;1287;22787;-79
2023/04/01 13:08:17;;;;;;;1.80;1.70;;;;;;;14.35;100.00;97066.92;132002;1287;22469;-79
2023/04/01 13:11:20;;;;;;;2.90;2.60;;;;;;;14.24;100.00;97070.66;132118;1287;22517;-78
2023/04/01 13:14:23;;;;;;;3.80;2.50;;;;;;;14.16;100.00;97068.50;132887;1287;22540;-76
2023/04/01 13:17:26;;;;;;;3.20;2.30;;;;;;;14.05;100.00;97071.19;132573;1287;22754;-78
2023/04/01 13:20:29;;;;;;;1.60;1.50;;;;;;;13.99;100.00;97069.67;132198;1287;23160;-78
2023/04/01 13:23:32;;;;;;;2.30;2.10;;;;;;;13.96;100.00;97071.27;132160;1287;22540;-80
2023/04/01 13:26:37;;;;;;;2.20;2.00;;;;;;;13.93;100.00;97076.64;132013;1287;22603;-79
2023/04/01 13:29:43;;;;;;;2.70;1.60;;;;;;;13.94;100.00;97075.39;132031;1287;22554;-80
2023/04/01 13:32:46;;;;;;;1.30;1.20;;;;;;;13.97;100.00;97074.01;131982;1287;22581;-80
2023/04/01 13:35:49;;;;;;;2.00;1.90;;;;;;;14.04;100.00;97075.07;131935;1287;22574;-77
2023/04/01 13:38:52;;;;;;;1.40;1.30;;;;;;;14.12;100.00;97071.66;132003;1287;24916;-78
2023/04/01 13:41:55;;;;;;;1.50;1.40;;;;;;;14.13;100.00;97065.77;131946;1285;22546;-78
2023/04/01 13:44:58;;;;;;;1.50;1.40;;;;;;;14.16;100.00;97070.91;131957;1287;22592;-77
2023/04/01 13:48:01;;;;;;;1.50;1.40;;;;;;;14.09;100.00;97071.19;131974;1287;22543;-78
2023/04/01 13:51:04;;;;;;;2.40;2.10;;;;;;;14.03;100.00;97068.85;131941;1287;25283;-77
2023/04/01 13:54:06;;;;;;;2.20;2.00;;;;;;;13.96;100.00;97072.10;131937;1287;25502;-77
2023/04/01 13:57:09;;;;;;;2.30;2.00;;;;;;;13.75;100.00;97078.52;131838;1287;24291;-76